Time;durP1;ratioP1;P1;durP2;ratioP2;P2;SDS_P1;SDS_P2;PMS_P1;PMS_P2;Temp;Humidity;BMP_temperature;BMP_pressure;BME280_temperature;BME280_humidity;BME280_pressure;Samples;Min_cycle;Max_cycle;Signal;HPM_P1;HPM_P2
2023/02/11 00:00:49;;;;;;;31.80;15.20;;;;;;;8.45;49.46;101364.60;145431;1264;99337;-91
2023/02/11 00:04:13;;;;;;;38.20;17.50;;;;;;;8.44;49.59;101358.52;145830;1257;107478;-93
2023/02/11 00:07:37;;;;;;;31.20;14.70;;;;;;;8.44;49.57;101355.75;146678;1257;97909;-90
2023/02/11 00:11:14;;;;;;;27.00;14.50;;;;;;;8.44;49.60;101356.61;146103;1257;107536;-90
2023/02/11 00:15:00;;;;;;;25.00;14.70;;;;;;;8.43;49.59;101345.83;145997;1257;107506;-90
2023/02/11 00:18:24;;;;;;;31.00;15.70;;;;;;;8.42;49.63;101328.27;146966;1257;108480;-93
2023/02/11 00:22:10;;;;;;;;;;;;;;;8.43;49.49;101331.22;146464;1258;108507;-86
2023/02/11 00:25:41;;;;;;;28.30;15.50;;;;;;;8.42;49.66;101330.84;146227;1256;99277;-93
2023/02/11 00:29:04;;;;;;;25.80;14.00;;;;;;;8.41;49.67;101323.70;146023;1260;108410;-90
2023/02/11 00:32:31;;;;;;;23.20;13.30;;;;;;;8.40;49.60;101317.75;146267;1256;97937;-91
2023/02/11 00:36:02;;;;;;;28.00;14.00;;;;;;;8.39;49.50;101307.14;145774;1256;108595;-89
2023/02/11 00:39:26;;;;;;;18.20;12.50;;;;;;;8.38;49.53;101309.02;145621;1260;107526;-89
2023/02/11 00:42:52;;;;;;;21.90;12.90;;;;;;;8.39;49.57;101301.61;145822;1262;97946;-90
2023/02/11 00:46:21;;;;;;;19.20;13.10;;;;;;;8.38;49.38;101288.73;145829;1266;109754;-89
2023/02/11 00:49:44;;;;;;;22.70;11.80;;;;;;;8.33;49.62;101268.73;145958;1262;108857;-92
2023/02/11 00:53:07;;;;;;;23.70;11.40;;;;;;;8.33;49.31;101250.90;145186;1264;107223;-88
2023/02/11 00:56:44;;;;;;;21.40;12.10;;;;;;;8.31;49.46;101240.77;145577;1267;99316;-89
2023/02/11 01:00:07;;;;;;;21.20;12.50;;;;;;;8.32;49.46;101233.18;144729;1268;108505;-91
2023/02/11 01:03:30;;;;;;;19.00;11.00;;;;;;;8.33;49.47;101221.06;144793;1270;97969;-88
2023/02/11 01:06:52;;;;;;;20.80;11.00;;;;;;;8.30;49.46;101220.63;145015;1272;99262;-91
2023/02/11 01:10:15;;;;;;;22.40;12.20;;;;;;;8.30;49.46;101218.33;145080;1268;97927;-90
2023/02/11 01:13:37;;;;;;;18.10;11.90;;;;;;;8.31;49.31;101209.77;144993;1268;97946;-90
2023/02/11 01:17:00;;;;;;;20.50;11.10;;;;;;;8.33;49.33;101200.79;145026;1270;99240;-89
2023/02/11 01:20:43;;;;;;;17.90;10.50;;;;;;;8.32;49.41;101187.62;145780;1264;98927;-92
2023/02/11 01:24:11;;;;;;;17.00;10.90;;;;;;;8.33;49.45;101174.30;145251;1263;98021;-91
2023/02/11 01:27:36;;;;;;;15.30;10.50;;;;;;;8.32;49.34;101160.77;145662;1265;98120;-92
2023/02/11 01:31:02;;;;;;;18.30;10.40;;;;;;;8.31;49.27;101150.86;145528;1257;98109;-91
2023/02/11 01:34:27;;;;;;;16.80;11.10;;;;;;;8.31;49.35;101138.38;146138;1257;97907;-90
2023/02/11 01:37:50;;;;;;;17.20;10.10;;;;;;;8.31;49.18;101135.25;145609;1258;98351;-93
2023/02/11 01:41:19;;;;;;;18.00;11.30;;;;;;;8.28;49.35;101137.05;145732;1257;98000;-93
2023/02/11 01:44:53;;;;;;;24.80;10.90;;;;;;;8.27;49.33;101140.67;145793;1258;99212;-91
2023/02/11 01:48:45;;;;;;;19.90;11.20;;;;;;;8.28;49.32;101152.99;146055;1258;99229;-89
2023/02/11 01:52:23;;;;;;;17.00;10.10;;;;;;;8.29;49.24;101163.59;145160;1265;98059;-92
2023/02/11 01:59:38;;;;;;;19.50;10.60;;;;;;;8.29;49.30;101146.42;145043;1264;97939;-92
2023/02/11 02:03:15;;;;;;;14.30;9.30;;;;;;;8.28;49.25;101122.67;145279;1269;98010;-88
2023/02/11 02:06:53;;;;;;;20.10;10.20;;;;;;;8.28;49.26;101122.16;144801;1281;98099;-89
2023/02/11 02:10:20;;;;;;;19.90;10.90;;;;;;;8.29;49.29;101108.50;145268;1270;98048;-91
2023/02/11 02:13:42;;;;;;;15.70;9.10;;;;;;;8.29;49.12;101100.36;144896;1266;98029;-91
2023/02/11 02:17:19;;;;;;;20.60;9.70;;;;;;;8.29;49.17;101079.25;144857;1269;99361;-90
2023/02/11 02:21:10;;;;;;;19.30;9.40;;;;;;;8.28;49.14;101070.00;144653;1269;98615;-91
2023/02/11 02:25:09;;;;;;;17.50;10.30;;;;;;;8.22;49.26;101062.50;144923;1265;98029;-91
2023/02/11 02:28:59;;;;;;;18.00;9.60;;;;;;;8.17;49.30;101056.71;144803;1270;99242;-93
2023/02/11 02:33:14;;;;;;;18.00;9.70;;;;;;;8.15;49.34;101060.96;145213;1257;99167;-90
2023/02/11 02:36:58;;;;;;;16.90;10.00;;;;;;;8.14;49.27;101062.67;144908;1262;97983;-92
2023/02/11 02:40:45;;;;;;;19.70;9.70;;;;;;;8.14;49.34;101050.20;145471;1262;97992;-90
2023/02/11 02:44:08;;;;;;;21.10;10.00;;;;;;;8.15;49.42;101039.81;145866;1257;97903;-90
2023/02/11 02:47:33;;;;;;;19.20;10.50;;;;;;;8.16;49.41;101026.91;145795;1257;98520;-88
2023/02/11 02:51:41;;;;;;;21.60;11.40;;;;;;;8.16;49.30;101032.95;145628;1257;97977;-92
2023/02/11 02:55:21;;;;;;;17.50;8.90;;;;;;;8.15;49.31;101035.86;145321;1262;97939;-90
2023/02/11 02:59:10;;;;;;;20.30;10.20;;;;;;;8.16;49.22;101029.66;146193;1258;97983;-92
2023/02/11 03:02:48;;;;;;;19.40;9.80;;;;;;;8.18;49.28;101024.89;145623;1257;98028;-91
2023/02/11 03:06:37;;;;;;;14.20;9.40;;;;;;;8.19;49.31;101023.23;146386;1257;97934;-89
2023/02/11 03:10:13;;;;;;;18.70;9.80;;;;;;;8.19;49.28;101011.61;146050;1257;97840;-89
2023/02/11 03:13:39;;;;;;;20.00;10.20;;;;;;;8.21;49.20;101022.26;145350;1266;99197;-87
2023/02/11 03:17:26;;;;;;;15.30;9.60;;;;;;;8.21;49.19;101011.03;145267;1267;98045;-94
2023/02/11 03:20:59;;;;;;;15.50;10.40;;;;;;;8.23;49.22;101000.35;145362;1267;97996;-92
2023/02/11 03:24:34;;;;;;;19.20;9.50;;;;;;;8.22;49.20;100987.14;145657;1268;98021;-92
2023/02/11 03:29:02;;;;;;;15.70;8.40;;;;;;;8.21;49.19;100985.21;145696;1271;99207;-89
2023/02/11 03:32:35;;;;;;;15.80;8.10;;;;;;;8.24;49.31;100981.17;144346;1270;98088;-87
2023/02/11 03:36:06;;;;;;;18.00;9.80;;;;;;;8.25;49.09;100975.32;147159;1269;97937;-92
2023/02/11 03:39:35;;;;;;;18.20;8.40;;;;;;;8.24;49.12;100962.66;145356;1265;98014;-91
2023/02/11 03:43:02;;;;;;;15.70;8.50;;;;;;;8.23;49.09;100958.48;144747;1264;98030;-93
2023/02/11 03:46:33;;;;;;;15.90;9.20;;;;;;;8.19;49.09;100951.70;145728;1264;99253;-92
2023/02/11 03:49:58;;;;;;;14.40;10.10;;;;;;;8.20;49.07;100949.50;146031;1257;99008;-95
2023/02/11 03:53:21;;;;;;;18.00;9.00;;;;;;;8.22;49.06;100945.60;146507;1259;97903;-91
2023/02/11 03:57:07;;;;;;;14.20;8.50;;;;;;;8.24;48.90;100951.23;145553;1262;97883;-91
2023/02/11 04:00:36;;;;;;;17.10;9.80;;;;;;;8.25;48.95;100946.05;144916;1264;98297;-88
2023/02/11 04:03:58;;;;;;;22.00;9.90;;;;;;;8.20;49.01;100928.02;145209;1267;98016;-91
2023/02/11 04:07:20;;;;;;;18.90;10.30;;;;;;;8.20;49.01;100912.96;145279;1264;99272;-87
2023/02/11 04:10:42;;;;;;;20.70;9.40;;;;;;;8.20;48.90;100899.98;145455;1267;97989;-92
2023/02/11 04:14:04;;;;;;;17.40;10.30;;;;;;;8.21;48.90;100883.72;145134;1267;98090;-91
2023/02/11 04:17:27;;;;;;;18.80;10.00;;;;;;;8.21;48.87;100874.90;145991;1257;99322;-89
2023/02/11 04:20:59;;;;;;;15.30;11.00;;;;;;;8.20;48.83;100874.86;145331;1262;98089;-89
2023/02/11 04:24:27;;;;;;;22.20;11.20;;;;;;;8.19;48.83;100871.86;145273;1258;110909;-91
2023/02/11 04:27:51;;;;;;;21.30;10.90;;;;;;;8.18;48.76;100878.42;145701;1259;97909;-91
2023/02/11 04:31:13;;;;;;;15.70;10.40;;;;;;;8.17;48.85;100867.80;146094;1262;98445;-91
2023/02/11 04:34:35;;;;;;;16.70;9.40;;;;;;;8.18;48.78;100860.58;145706;1263;97946;-88
2023/02/11 04:37:57;;;;;;;19.60;11.30;;;;;;;8.19;48.81;100856.64;145642;1260;99239;-89
2023/02/11 04:41:19;;;;;;;17.00;10.50;;;;;;;8.19;48.84;100846.08;145935;1257;102315;-89
2023/02/11 04:44:42;;;;;;;18.00;11.30;;;;;;;8.19;48.63;100833.95;145746;1259;98028;-88
2023/02/11 04:48:06;;;;;;;15.60;10.40;;;;;;;8.17;48.80;100819.66;145795;1262;103175;-93
2023/02/11 04:51:34;;;;;;;19.90;11.70;;;;;;;8.15;48.68;100803.50;146153;1257;102239;-91
2023/02/11 04:54:59;;;;;;;24.40;11.70;;;;;;;8.13;48.72;100790.25;146199;1259;98046;-90
2023/02/11 04:58:25;;;;;;;25.50;12.90;;;;;;;8.09;48.68;100786.13;146775;1260;103199;-88
2023/02/11 05:01:48;;;;;;;17.70;12.00;;;;;;;8.05;48.71;100780.77;146628;1257;102112;-91
2023/02/11 05:05:11;;;;;;;22.90;11.70;;;;;;;8.07;48.72;100780.66;146351;1263;97963;-88
2023/02/11 05:08:34;;;;;;;18.40;11.70;;;;;;;8.09;48.56;100788.36;146049;1264;98035;-91
2023/02/11 05:11:55;;;;;;;19.30;12.60;;;;;;;8.07;48.55;100781.89;146819;1257;99315;-89
2023/02/11 05:15:21;;;;;;;20.50;12.30;;;;;;;8.06;48.51;100774.91;146741;1262;107535;-87
2023/02/11 05:18:46;;;;;;;19.60;11.40;;;;;;;8.07;48.56;100765.96;145906;1257;106361;-89
2023/02/11 05:22:10;;;;;;;20.80;14.30;;;;;;;8.04;48.42;100763.07;146288;1257;107120;-85
2023/02/11 05:25:34;;;;;;;22.10;12.60;;;;;;;8.00;48.58;100746.48;146719;1257;108424;-92
2023/02/11 05:29:07;;;;;;;20.30;12.30;;;;;;;8.02;48.52;100736.34;147452;1257;107369;-88
2023/02/11 05:32:32;;;;;;;23.00;13.30;;;;;;;8.05;48.45;100737.48;145932;1257;108390;-88
2023/02/11 05:36:02;;;;;;;26.00;14.40;;;;;;;8.04;48.57;100738.33;146383;1257;108634;-89
2023/02/11 05:39:37;;;;;;;22.90;14.30;;;;;;;8.05;48.42;100751.68;145684;1262;107586;-93
2023/02/11 05:42:59;;;;;;;22.70;12.70;;;;;;;8.05;48.39;100743.72;146188;1262;108247;-89
2023/02/11 05:46:23;;;;;;;18.20;12.60;;;;;;;8.07;48.39;100752.95;145522;1262;97955;-92
2023/02/11 05:49:45;;;;;;;19.30;13.00;;;;;;;8.07;48.34;100749.68;145742;1266;98066;-87
2023/02/11 05:53:09;;;;;;;19.40;12.50;;;;;;;8.06;48.36;100737.71;145983;1267;97858;-92
2023/02/11 05:56:34;;;;;;;20.70;13.20;;;;;;;8.05;48.38;100731.96;145933;1264;97939;-91
2023/02/11 05:59:56;;;;;;;20.10;13.00;;;;;;;8.04;48.35;100723.76;145163;1264;98032;-91
2023/02/11 06:03:20;;;;;;;21.20;13.90;;;;;;;8.05;48.35;100722.94;146163;1264;97928;-95
2023/02/11 06:06:48;;;;;;;22.30;13.80;;;;;;;8.05;48.33;100716.53;145865;1264;99210;-90
2023/02/11 06:10:10;;;;;;;25.00;14.50;;;;;;;8.07;48.28;100716.77;145701;1267;98112;-87
2023/02/11 06:13:35;;;;;;;20.60;13.50;;;;;;;8.09;48.17;100712.86;145487;1257;98119;-93
2023/02/11 06:16:58;;;;;;;19.60;13.30;;;;;;;8.12;48.31;100709.54;147096;1257;98048;-90
2023/02/11 06:20:21;;;;;;;23.40;13.40;;;;;;;8.15;48.17;100707.20;145442;1262;98835;-88
2023/02/11 06:23:44;;;;;;;19.10;13.00;;;;;;;8.15;48.19;100703.09;145360;1262;97924;-90
2023/02/11 06:31:06;;;;;;;20.90;13.80;;;;;;;8.15;48.13;100697.54;145769;1262;99190;-89
2023/02/11 06:34:30;;;;;;;19.10;12.80;;;;;;;8.16;48.14;100693.92;145276;1266;97938;-90
2023/02/11 06:38:08;;;;;;;21.00;13.50;;;;;;;8.19;48.07;100692.66;145285;1267;98269;-91
2023/02/11 06:41:30;;;;;;;24.40;14.90;;;;;;;8.23;47.98;100680.16;145521;1262;98044;-91
2023/02/11 06:44:52;;;;;;;25.60;14.00;;;;;;;8.25;48.10;100674.39;145386;1267;98006;-94
2023/02/11 06:48:14;;;;;;;24.30;13.60;;;;;;;8.28;47.99;100664.29;145383;1262;98013;-90
2023/02/11 06:51:37;;;;;;;30.70;14.60;;;;;;;8.33;48.02;100676.05;145463;1259;112131;-90
2023/02/11 06:54:59;;;;;;;19.30;14.60;;;;;;;8.35;47.90;100671.09;146479;1257;98008;-90
2023/02/11 06:58:21;;;;;;;19.00;13.60;;;;;;;8.40;47.75;100669.40;145675;1262;97917;-90
2023/02/11 07:01:44;;;;;;;21.00;14.50;;;;;;;8.44;47.84;100658.98;146374;1257;100885;-92
2023/02/11 07:05:15;;;;;;;22.30;13.60;;;;;;;8.48;47.76;100644.06;146954;1259;102355;-92
2023/02/11 07:08:41;;;;;;;23.20;14.00;;;;;;;8.51;47.71;100634.85;146334;1257;102475;-92
2023/02/11 07:12:04;;;;;;;20.10;14.00;;;;;;;8.54;47.74;100640.99;145995;1257;100956;-90
2023/02/11 07:15:28;;;;;;;21.90;14.70;;;;;;;8.56;47.71;100647.81;145982;1262;101901;-92
2023/02/11 07:18:51;;;;;;;22.00;14.30;;;;;;;8.58;47.70;100656.38;145453;1262;98455;-92
2023/02/11 07:22:13;;;;;;;21.10;15.10;;;;;;;8.59;47.64;100653.28;145411;1262;99213;-92
2023/02/11 07:25:36;;;;;;;25.30;15.10;;;;;;;8.59;47.59;100648.28;145875;1257;97952;-84
2023/02/11 07:29:01;;;;;;;22.80;15.30;;;;;;;8.59;47.64;100661.10;145810;1257;106215;-91
2023/02/11 07:32:23;;;;;;;23.60;15.20;;;;;;;8.59;47.74;100650.36;146650;1257;107813;-89
2023/02/11 07:35:47;;;;;;;23.50;15.40;;;;;;;8.60;47.71;100646.90;145809;1265;98144;-89
2023/02/11 07:39:14;;;;;;;21.40;16.20;;;;;;;8.59;47.68;100652.45;145782;1264;108471;-88
2023/02/11 07:42:43;;;;;;;23.10;14.90;;;;;;;8.59;47.78;100646.02;145853;1256;107507;-94
2023/02/11 07:46:09;;;;;;;25.30;16.10;;;;;;;8.58;47.82;100636.46;145979;1257;108384;-88
2023/02/11 07:49:38;;;;;;;23.30;15.50;;;;;;;8.58;47.78;100629.88;146686;1260;108398;-92
2023/02/11 07:53:02;;;;;;;24.30;15.90;;;;;;;8.59;47.94;100633.73;145600;1256;107518;-90
2023/02/11 07:56:28;;;;;;;25.90;16.20;;;;;;;8.61;47.95;100635.88;146039;1261;107731;-89
2023/02/11 07:59:50;;;;;;;26.80;16.00;;;;;;;8.63;47.90;100631.95;145344;1261;107550;-87
2023/02/11 08:03:12;;;;;;;27.30;16.30;;;;;;;8.65;47.89;100634.30;145499;1263;99290;-92
2023/02/11 08:06:39;;;;;;;27.10;16.10;;;;;;;8.67;47.94;100628.30;146005;1260;97938;-90
2023/02/11 08:10:01;;;;;;;26.80;17.10;;;;;;;8.67;48.02;100628.48;146308;1260;97995;-93
2023/02/11 08:13:25;;;;;;;26.90;16.40;;;;;;;8.69;48.02;100621.59;146137;1260;97954;-83
2023/02/11 08:16:50;;;;;;;31.70;16.50;;;;;;;8.71;47.92;100620.30;146854;1260;98028;-87
2023/02/11 08:20:13;;;;;;;28.90;17.60;;;;;;;8.74;47.97;100616.59;146896;1256;97956;-92
2023/02/11 08:23:37;;;;;;;31.60;17.20;;;;;;;8.78;48.17;100618.60;145826;1262;98029;-85
2023/02/11 08:27:00;;;;;;;23.30;16.80;;;;;;;8.80;48.18;100610.39;145525;1266;97999;-89
2023/02/11 08:30:22;;;;;;;24.40;16.80;;;;;;;8.83;48.06;100599.21;145068;1266;98019;-93
2023/02/11 08:33:57;;;;;;;27.90;18.30;;;;;;;8.84;48.25;100599.27;146287;1262;98020;-93
2023/02/11 08:37:21;;;;;;;29.40;18.30;;;;;;;8.84;48.37;100602.20;146203;1266;97991;-91
2023/02/11 08:40:44;;;;;;;28.40;18.30;;;;;;;8.83;48.37;100601.80;145723;1257;97929;-88
2023/02/11 08:44:13;;;;;;;31.90;19.00;;;;;;;8.82;48.30;100600.04;146564;1257;97935;-86
2023/02/11 08:47:40;;;;;;;32.90;18.10;;;;;;;8.80;48.38;100583.15;146397;1256;97980;-92
2023/02/11 08:51:11;;;;;;;28.30;17.30;;;;;;;8.81;48.49;100576.44;146265;1262;98078;-93
2023/02/11 08:54:43;;;;;;;26.30;17.50;;;;;;;8.83;48.49;100570.27;146747;1256;97920;-93
2023/02/11 08:58:05;;;;;;;24.10;17.30;;;;;;;8.85;48.60;100541.40;146020;1260;98016;-91
2023/02/11 09:01:29;;;;;;;27.60;18.30;;;;;;;8.87;48.68;100535.38;145261;1260;98796;-87
2023/02/11 09:04:51;;;;;;;27.30;18.30;;;;;;;8.91;48.64;100536.05;145268;1256;97912;-85
2023/02/11 09:08:14;;;;;;;25.30;17.20;;;;;;;8.94;48.57;100525.77;145472;1258;99214;-85
2023/02/11 09:11:36;;;;;;;28.10;18.30;;;;;;;8.96;48.83;100520.77;145272;1261;99149;-85
2023/02/11 09:14:58;;;;;;;27.70;18.10;;;;;;;8.96;48.82;100507.79;144936;1262;99167;-89
2023/02/11 09:18:20;;;;;;;26.10;17.70;;;;;;;8.97;48.76;100511.63;145765;1262;97902;-89
2023/02/11 09:21:44;;;;;;;25.60;17.60;;;;;;;8.98;48.82;100508.38;145097;1257;110879;-88
2023/02/11 09:25:07;;;;;;;26.10;18.40;;;;;;;8.99;48.78;100507.36;144925;1257;98005;-85
2023/02/11 09:28:29;;;;;;;27.20;17.50;;;;;;;9.01;48.88;100515.91;145243;1256;97999;-88
2023/02/11 09:31:51;;;;;;;27.10;17.80;;;;;;;9.02;49.01;100524.60;145025;1256;99199;-91
2023/02/11 09:35:16;;;;;;;26.60;18.00;;;;;;;9.02;48.96;100520.63;144982;1261;103336;-86
2023/02/11 09:38:38;;;;;;;26.30;17.90;;;;;;;8.98;48.92;100527.80;144875;1267;98099;-90
2023/02/11 09:42:43;;;;;;;28.90;18.90;;;;;;;8.98;48.93;100529.87;144817;1268;99551;-85
2023/02/11 09:46:12;;;;;;;25.30;17.20;;;;;;;8.96;49.04;100554.07;144811;1266;155011;-86
2023/02/11 09:49:44;;;;;;;22.80;17.60;;;;;;;8.96;49.23;100564.98;145179;1271;106735;-88
2023/02/11 09:53:30;;;;;;;26.20;17.70;;;;;;;8.95;49.19;100565.81;145752;1264;106742;-80
2023/02/11 09:56:52;;;;;;;26.50;17.20;;;;;;;8.93;49.29;100553.11;145666;1262;106305;-90
2023/02/11 10:00:19;;;;;;;26.40;16.80;;;;;;;8.93;49.17;100531.77;145668;1256;107607;-87
2023/02/11 10:03:44;;;;;;;26.30;16.70;;;;;;;8.93;49.37;100517.76;146191;1256;107400;-88
2023/02/11 10:07:31;;;;;;;24.30;16.30;;;;;;;8.95;49.44;100511.04;145492;1259;107493;-91
2023/02/11 10:11:30;;;;;;;25.60;16.70;;;;;;;8.96;49.39;100518.51;145292;1257;107603;-90
2023/02/11 10:15:02;;;;;;;25.10;16.90;;;;;;;8.95;49.60;100522.84;145342;1260;107646;-88
2023/02/11 10:18:23;;;;;;;25.80;16.60;;;;;;;8.95;49.64;100523.19;144634;1258;107419;-87
2023/02/11 10:22:04;;;;;;;26.10;16.30;;;;;;;8.95;49.72;100514.16;144523;1262;98044;-87
2023/02/11 10:25:36;;;;;;;21.60;16.20;;;;;;;8.93;49.78;100500.91;144896;1262;105871;-89
2023/02/11 10:29:01;;;;;;;22.80;16.50;;;;;;;8.92;49.87;100483.90;144534;1262;107561;-84
2023/02/11 10:32:50;;;;;;;21.90;16.00;;;;;;;8.93;49.77;100476.81;144827;1262;107126;-89
2023/02/11 10:36:14;;;;;;;21.60;15.70;;;;;;;8.92;49.93;100464.29;145103;1261;107251;-90
2023/02/11 10:39:38;;;;;;;22.50;14.70;;;;;;;8.96;51.91;100446.23;145892;1259;107382;-92
2023/02/11 10:43:03;;;;;;;22.20;15.60;;;;;;;9.02;52.08;100444.52;145756;1259;107815;-88
2023/02/11 10:46:30;;;;;;;18.10;14.40;;;;;;;9.00;52.08;100442.90;145900;1256;107140;-90
2023/02/11 10:49:52;;;;;;;26.00;17.10;;;;;;;8.99;52.25;100438.70;145632;1262;108236;-91
2023/02/11 10:53:21;;;;;;;21.50;15.50;;;;;;;8.97;52.22;100430.81;145330;1258;99220;-88
2023/02/11 10:56:53;;;;;;;22.60;15.20;;;;;;;8.95;52.29;100423.69;145932;1263;108482;-88
2023/02/11 11:00:39;;;;;;;22.40;15.70;;;;;;;8.94;52.29;100421.73;145721;1262;106705;-90
2023/02/11 11:04:01;;;;;;;26.70;17.40;;;;;;;8.94;52.27;100432.84;145426;1261;107736;-88
2023/02/11 11:07:26;;;;;;;23.50;15.60;;;;;;;8.93;52.30;100426.56;145149;1257;97967;-87
2023/02/11 11:11:09;;;;;;;22.00;15.80;;;;;;;8.93;52.08;100409.05;145000;1260;106333;-90
2023/02/11 11:14:30;;;;;;;28.20;16.70;;;;;;;8.93;52.25;100416.86;145018;1259;108546;-87
2023/02/11 11:18:15;;;;;;;20.00;14.70;;;;;;;8.93;52.05;100424.31;146015;1262;97913;-91
2023/02/11 11:21:46;;;;;;;23.30;15.50;;;;;;;8.92;52.26;100448.52;146154;1260;107549;-93
2023/02/11 11:25:24;;;;;;;23.60;17.00;;;;;;;8.90;52.20;100456.79;145834;1260;107538;-89
2023/02/11 11:29:00;;;;;;;26.30;17.90;;;;;;;8.88;52.13;100456.40;145652;1261;107512;-90
2023/02/11 11:32:28;;;;;;;23.00;15.70;;;;;;;8.90;52.41;100445.00;145578;1256;107320;-87
2023/02/11 11:35:58;;;;;;;27.80;18.00;;;;;;;8.99;53.72;100443.73;145660;1261;108183;-88
2023/02/11 11:39:24;;;;;;;23.50;16.20;;;;;;;9.05;53.52;100438.89;146461;1261;107446;-89
2023/02/11 11:43:03;;;;;;;25.30;16.50;;;;;;;9.06;53.49;100433.71;145856;1259;107471;-89
2023/02/11 11:46:34;;;;;;;30.00;18.50;;;;;;;9.07;53.35;100427.67;146119;1258;106689;-93
2023/02/11 11:50:11;;;;;;;24.50;16.30;;;;;;;9.06;53.35;100417.25;145956;1260;106296;-88
2023/02/11 11:53:50;;;;;;;29.90;19.10;;;;;;;9.06;53.42;100414.64;145718;1262;106640;-89
2023/02/11 11:57:16;;;;;;;23.40;18.10;;;;;;;9.06;53.21;100401.99;145607;1257;106629;-87
2023/02/11 12:00:51;;;;;;;27.10;17.50;;;;;;;9.07;53.22;100400.96;145720;1262;107192;-89
2023/02/11 12:04:22;;;;;;;25.30;16.70;;;;;;;9.07;53.31;100398.70;146078;1256;107471;-87
2023/02/11 12:07:59;;;;;;;29.80;19.60;;;;;;;9.07;53.16;100395.77;145591;1256;107125;-88
2023/02/11 12:11:37;;;;;;;30.80;18.70;;;;;;;9.08;53.19;100400.30;145541;1256;106222;-87
2023/02/11 12:15:06;;;;;;;30.50;20.20;;;;;;;9.09;52.98;100397.05;145625;1261;108376;-90
2023/02/11 12:18:38;;;;;;;27.10;18.00;;;;;;;9.10;53.05;100400.20;145590;1256;107178;-89
2023/02/11 12:22:17;;;;;;;28.20;18.30;;;;;;;9.11;52.88;100396.91;145846;1258;107408;-89
2023/02/11 12:25:47;;;;;;;30.40;20.30;;;;;;;9.12;52.99;100391.23;145589;1257;108171;-91
2023/02/11 12:29:21;;;;;;;31.80;19.30;;;;;;;9.12;52.93;100397.14;145446;1256;107278;-90
2023/02/11 12:33:05;;;;;;;29.70;20.10;;;;;;;9.11;52.84;100395.20;145975;1261;107047;-84
2023/02/11 12:36:54;;;;;;;26.00;17.60;;;;;;;9.11;52.74;100394.48;145567;1257;108184;-89
2023/02/11 12:40:15;;;;;;;30.20;19.60;;;;;;;9.10;52.84;100400.19;145456;1257;108486;-86
2023/02/11 12:43:40;;;;;;;30.90;19.50;;;;;;;9.11;52.76;100400.05;145799;1256;97915;-92
2023/02/11 12:47:13;;;;;;;26.60;19.10;;;;;;;9.11;52.77;100401.97;145740;1257;98052;-89
2023/02/11 12:50:41;;;;;;;26.90;18.30;;;;;;;9.10;52.74;100397.41;145558;1258;107139;-85
2023/02/11 12:54:31;;;;;;;26.70;18.00;;;;;;;9.10;52.68;100383.20;145913;1257;107495;-90
2023/02/11 12:57:56;;;;;;;31.10;20.10;;;;;;;9.12;52.84;100379.62;145901;1262;107399;-92
2023/02/11 13:01:26;;;;;;;30.20;19.80;;;;;;;9.13;52.72;100389.70;145554;1257;107540;-91
2023/02/11 13:04:54;;;;;;;;;;;;;;;9.14;52.77;100388.52;145931;1260;107698;-83
2023/02/11 13:08:42;;;;;;;25.70;17.90;;;;;;;9.14;52.68;100385.41;145473;1262;107523;-87
2023/02/11 13:15:51;;;;;;;21.40;15.30;;;;;;;9.22;55.71;100387.02;145374;1262;107689;-86
2023/02/11 13:19:12;;;;;;;25.00;17.40;;;;;;;9.28;56.41;100387.02;145501;1257;109078;-85
2023/02/11 13:22:47;;;;;;;20.80;13.90;;;;;;;9.35;57.26;100392.08;145524;1262;97954;-87
2023/02/11 13:26:46;;;;;;;24.90;16.70;;;;;;;9.45;58.21;100396.52;145483;1259;107555;-88
2023/02/11 13:30:29;;;;;;;28.10;17.20;;;;;;;9.47;58.04;100392.42;145352;1265;107559;-87
2023/02/11 13:33:52;;;;;;;27.30;18.40;;;;;;;9.50;58.67;100397.70;145312;1275;107991;-87
2023/02/11 13:37:22;;;;;;;26.30;17.90;;;;;;;9.53;58.73;100396.59;145398;1264;97993;-85
2023/02/11 13:40:44;;;;;;;26.50;17.50;;;;;;;9.54;58.88;100395.90;145507;1258;107412;-86
2023/02/11 13:44:09;;;;;;;30.90;18.80;;;;;;;9.62;59.93;100396.48;145455;1256;97938;-85
2023/02/11 13:47:33;;;;;;;28.90;19.60;;;;;;;9.68;59.92;100392.15;145595;1261;107323;-84
2023/02/11 13:51:04;;;;;;;27.70;19.10;;;;;;;9.78;60.49;100390.15;145323;1263;107439;-84
2023/02/11 13:54:33;;;;;;;30.60;19.90;;;;;;;9.88;60.86;100390.92;145448;1262;107448;-86
2023/02/11 13:58:04;;;;;;;29.60;19.70;;;;;;;10.01;61.26;100391.10;145465;1257;107608;-84
2023/02/11 14:08:57;;;;;;;31.30;21.00;;;;;;;10.03;60.90;100387.17;145331;1257;108388;-86
2023/02/11 14:09:16;;;;;;;32.80;22.20;;;;;;;10.09;61.53;100393.58;145513;1262;106552;-85
2023/02/11 14:12:38;;;;;;;39.30;25.20;;;;;;;10.01;60.42;100386.24;145549;1260;107510;-85
2023/02/11 14:16:21;;;;;;;38.40;25.60;;;;;;;9.70;59.73;100387.16;145392;1261;106254;-86
2023/02/11 14:20:00;;;;;;;40.30;24.90;;;;;;;9.39;59.50;100382.66;145598;1259;108218;-85
2023/02/11 14:23:27;;;;;;;40.50;25.30;;;;;;;9.18;59.32;100388.13;145418;1262;107498;-85
2023/02/11 14:27:22;;;;;;;36.60;24.70;;;;;;;9.01;59.61;100395.41;145391;1261;107512;-88
2023/02/11 14:31:09;;;;;;;38.00;23.00;;;;;;;8.91;59.83;100401.18;145387;1262;107515;-89
2023/02/11 14:34:37;;;;;;;46.00;24.90;;;;;;;8.89;59.67;100405.80;145405;1260;108530;-86
2023/02/11 14:38:11;;;;;;;42.70;24.10;;;;;;;8.87;59.84;100403.67;145329;1262;107295;-87
2023/02/11 14:41:45;;;;;;;32.80;22.40;;;;;;;8.85;59.69;100408.64;145099;1260;106468;-87
2023/02/11 14:45:10;;;;;;;33.00;23.40;;;;;;;8.81;59.65;100414.05;145174;1263;107082;-86
2023/02/11 14:48:34;;;;;;;33.20;21.60;;;;;;;8.77;59.44;100416.02;145374;1260;107199;-88
2023/02/11 14:52:26;;;;;;;35.10;22.20;;;;;;;8.77;59.57;100419.63;145241;1263;106710;-87
2023/02/11 14:55:53;;;;;;;31.90;21.70;;;;;;;8.81;59.74;100420.63;145577;1257;107431;-88
2023/02/11 14:59:20;;;;;;;39.10;23.40;;;;;;;8.83;59.54;100417.58;145482;1262;107404;-88
2023/02/11 15:02:47;;;;;;;32.50;20.90;;;;;;;8.86;59.46;100425.12;145331;1264;107894;-86
2023/02/11 15:06:15;;;;;;;34.00;21.80;;;;;;;8.86;59.39;100424.09;145569;1261;97918;-85
2023/02/11 15:09:45;;;;;;;32.50;22.80;;;;;;;8.90;59.33;100433.20;145244;1261;107225;-88
2023/02/11 15:13:07;;;;;;;32.40;21.40;;;;;;;8.94;59.25;100434.74;145268;1263;107462;-88
2023/02/11 15:16:31;;;;;;;36.10;22.20;;;;;;;9.00;59.14;100432.83;145492;1263;97922;-90
2023/02/11 15:19:56;;;;;;;29.70;21.00;;;;;;;9.05;58.99;100428.48;144701;1278;98119;-87
2023/02/11 15:23:24;;;;;;;32.40;20.50;;;;;;;9.09;58.85;100432.59;144693;1270;107597;-88
2023/02/11 15:27:07;;;;;;;29.80;19.50;;;;;;;9.10;58.83;100434.87;144325;1269;107799;-88
2023/02/11 15:30:35;;;;;;;28.50;20.80;;;;;;;9.13;58.66;100436.70;144656;1270;107475;-88
2023/02/11 15:34:06;;;;;;;32.40;20.40;;;;;;;9.14;58.56;100438.30;144911;1265;107470;-88
2023/02/11 15:37:30;;;;;;;29.90;20.80;;;;;;;9.17;58.30;100446.38;145130;1266;108752;-87
2023/02/11 15:40:57;;;;;;;30.40;20.20;;;;;;;9.19;58.41;100453.54;145669;1257;98852;-91
2023/02/11 15:44:28;;;;;;;26.30;18.10;;;;;;;9.22;58.05;100457.97;146225;1263;108482;-90
2023/02/11 15:48:04;;;;;;;27.30;18.40;;;;;;;9.24;58.12;100461.66;145592;1263;108515;-88
2023/02/11 15:51:36;;;;;;;29.30;19.50;;;;;;;9.26;57.98;100466.73;145768;1262;107501;-88
2023/02/11 15:55:01;;;;;;;27.80;19.70;;;;;;;9.26;57.92;100461.54;146292;1261;108396;-91
2023/02/11 15:58:24;;;;;;;28.10;18.30;;;;;;;9.27;57.81;100460.69;146037;1260;106341;-91
2023/02/11 16:01:46;;;;;;;27.70;18.90;;;;;;;9.28;57.80;100462.99;145453;1264;98014;-90
2023/02/11 16:05:26;;;;;;;27.30;18.60;;;;;;;9.27;57.69;100462.26;145826;1261;98391;-91